createdAt,value
2017-09-22T00:02:13.408Z,64.40
2017-09-22T00:04:41.118Z,64.40
2017-09-22T00:07:08.715Z,64.40
2017-09-22T00:09:37.569Z,64.40
2017-09-22T00:12:05.317Z,64.40
2017-09-22T00:14:34.811Z,64.60
2017-09-22T00:17:02.348Z,64.60
2017-09-22T00:19:29.834Z,64.50
2017-09-22T00:21:58.119Z,64.20
2017-09-22T00:24:25.576Z,64.20
2017-09-22T00:26:53.484Z,64.30
2017-09-22T00:29:21.642Z,64.40
2017-09-22T00:31:49.172Z,64.40
2017-09-22T00:34:16.634Z,64.50
2017-09-22T00:36:46.034Z,64.40
2017-09-22T00:39:14.378Z,64.30
2017-09-22T00:41:44.516Z,64.40
2017-09-22T00:44:12.039Z,64.10
2017-09-22T00:46:40.887Z,64.20
2017-09-22T00:49:09.131Z,64.20
2017-09-22T00:51:36.639Z,64.10
2017-09-22T00:54:04.480Z,64.20
2017-09-22T00:56:32.739Z,64.20
2017-09-22T00:59:00.771Z,64.20
2017-09-22T01:01:29.536Z,64.20
2017-09-22T01:03:57.822Z,64.40
2017-09-22T01:06:26.124Z,64.20
2017-09-22T01:08:53.692Z,64.20
2017-09-22T01:11:21.181Z,64.30
2017-09-22T01:13:48.655Z,64.20
2017-09-22T01:16:16.122Z,64.20
2017-09-22T01:18:44.639Z,64.40
2017-09-22T01:21:12.092Z,64.30
2017-09-22T01:23:39.728Z,64.30
2017-09-22T01:26:07.691Z,64.30
2017-09-22T01:28:35.538Z,64.30
2017-09-22T01:31:03.385Z,64.40
2017-09-22T01:33:30.928Z,64.30
2017-09-22T01:35:58.558Z,64.30
2017-09-22T01:38:26.731Z,64.40
2017-09-22T01:40:55.267Z,64.60
2017-09-22T01:43:24.387Z,64.50
2017-09-22T01:45:51.915Z,64.50
2017-09-22T01:48:19.747Z,64.40
2017-09-22T01:50:47.280Z,64.40
2017-09-22T01:53:15.664Z,64.40
2017-09-22T01:55:44.492Z,64.30
2017-09-22T01:58:12.358Z,64.40
2017-09-22T02:00:40.760Z,64.50
2017-09-22T02:03:08.649Z,64.50
2017-09-22T02:05:36.258Z,64.40
2017-09-22T02:08:03.735Z,64.40
2017-09-22T02:10:32.067Z,64.90
2017-09-22T02:12:59.551Z,64.30
2017-09-22T02:15:27.220Z,64.00
2017-09-22T02:17:54.676Z,64.20
2017-09-22T02:20:22.398Z,64.20
2017-09-22T02:22:51.257Z,64.30
2017-09-22T02:25:19.869Z,64.30
2017-09-22T02:27:47.354Z,64.30
2017-09-22T02:30:16.130Z,64.30
2017-09-22T02:32:44.424Z,64.20
2017-09-22T02:35:12.431Z,64.30
2017-09-22T02:37:40.436Z,64.40
2017-09-22T02:40:07.901Z,64.30
2017-09-22T02:42:36.055Z,64.30
2017-09-22T02:45:03.615Z,64.50
2017-09-22T02:47:31.349Z,64.40
2017-09-22T02:49:58.908Z,64.30
2017-09-22T02:52:26.807Z,65.00
2017-09-22T02:54:55.035Z,64.30
2017-09-22T02:57:23.688Z,64.30
2017-09-22T02:59:51.519Z,64.30
2017-09-22T03:02:19.431Z,64.40
2017-09-22T03:04:47.690Z,64.40
2017-09-22T03:07:15.956Z,64.30
2017-09-22T03:09:44.798Z,64.20
2017-09-22T03:12:12.379Z,64.20
2017-09-22T03:14:39.875Z,64.40
2017-09-22T03:17:07.354Z,64.40
2017-09-22T03:19:35.572Z,64.60
2017-09-22T03:22:03.073Z,64.50
2017-09-22T03:24:30.636Z,64.60
2017-09-22T03:26:58.863Z,64.80
2017-09-22T03:29:26.781Z,64.80
2017-09-22T03:31:54.643Z,64.80
2017-09-22T03:34:23.472Z,65.30
2017-09-22T03:36:51.014Z,64.60
2017-09-22T03:39:18.914Z,64.60
2017-09-22T03:41:47.879Z,64.60
2017-09-22T03:44:15.597Z,64.50
2017-09-22T03:46:44.172Z,64.50
2017-09-22T03:49:12.265Z,64.40
2017-09-22T03:51:40.495Z,64.50
2017-09-22T03:54:08.467Z,64.50
2017-09-22T03:56:37.250Z,64.60
2017-09-22T03:59:05.897Z,64.70
2017-09-22T04:01:34.229Z,64.70
2017-09-22T04:04:01.911Z,64.80
2017-09-22T04:06:29.416Z,64.70
2017-09-22T04:08:56.994Z,64.60
2017-09-22T04:11:25.028Z,64.50
2017-09-22T04:13:52.546Z,64.50
2017-09-22T04:16:21.083Z,64.60
2017-09-22T04:18:49.789Z,64.90
2017-09-22T04:21:18.367Z,64.80
2017-09-22T04:23:45.915Z,64.70
2017-09-22T04:26:13.905Z,64.70
2017-09-22T04:28:42.493Z,64.80
2017-09-22T04:31:10.006Z,64.80
2017-09-22T04:33:37.672Z,64.80
2017-09-22T04:36:06.287Z,64.80
2017-09-22T04:38:33.853Z,64.80
2017-09-22T04:41:01.676Z,64.80
2017-09-22T04:43:29.789Z,64.70
2017-09-22T04:45:58.608Z,64.50
2017-09-22T04:48:26.319Z,64.50
2017-09-22T04:50:53.789Z,64.40
2017-09-22T04:53:21.854Z,64.50
2017-09-22T04:55:49.751Z,64.50
2017-09-22T04:58:18.546Z,64.70
2017-09-22T05:00:46.056Z,64.70
2017-09-22T05:03:14.864Z,64.80
2017-09-22T05:05:42.348Z,64.80
2017-09-22T05:08:09.810Z,64.40
2017-09-22T05:10:37.785Z,64.40
2017-09-22T05:13:05.250Z,64.80
2017-09-22T05:15:32.735Z,64.70
2017-09-22T05:18:00.200Z,65.10
2017-09-22T05:20:28.733Z,65.00
2017-09-22T05:22:56.255Z,65.00
2017-09-22T05:25:24.267Z,64.80
2017-09-22T05:27:52.684Z,64.70
2017-09-22T05:30:20.287Z,64.70
2017-09-22T05:32:47.859Z,64.60
2017-09-22T05:35:15.402Z,64.80
2017-09-22T05:37:42.899Z,65.00
2017-09-22T05:40:11.167Z,65.30
2017-09-22T05:42:40.544Z,65.50
2017-09-22T05:45:09.633Z,65.70
2017-09-22T05:47:39.428Z,65.70
2017-09-22T05:50:07.666Z,66.00
2017-09-22T05:52:35.646Z,65.90
2017-09-22T05:55:03.631Z,66.20
2017-09-22T05:57:31.777Z,66.00
2017-09-22T05:59:59.536Z,66.00
2017-09-22T06:02:28.513Z,66.00
2017-09-22T06:04:57.100Z,66.10
2017-09-22T06:07:25.028Z,66.20
2017-09-22T06:09:52.580Z,66.10
2017-09-22T06:12:20.097Z,66.20
2017-09-22T06:14:48.120Z,66.30
2017-09-22T06:17:16.418Z,66.40
2017-09-22T06:19:44.695Z,66.40
2017-09-22T06:22:12.246Z,66.40
2017-09-22T06:24:39.762Z,66.70
2017-09-22T06:27:07.889Z,66.90
2017-09-22T06:29:36.460Z,67.10
2017-09-22T06:32:04.717Z,67.10
2017-09-22T06:34:32.936Z,67.20
2017-09-22T06:37:00.717Z,67.20
2017-09-22T06:39:29.282Z,67.60
2017-09-22T06:41:57.842Z,67.60
2017-09-22T06:44:26.141Z,68.20
2017-09-22T06:46:54.064Z,67.40
2017-09-22T06:49:22.330Z,67.60
2017-09-22T06:51:50.605Z,67.90
2017-09-22T06:54:19.018Z,67.90
2017-09-22T06:56:48.029Z,68.20
2017-09-22T06:59:16.318Z,68.50
2017-09-22T07:01:45.197Z,68.70
2017-09-22T07:04:12.705Z,68.60
2017-09-22T07:06:41.021Z,68.30
2017-09-22T07:09:08.518Z,68.30
2017-09-22T07:11:35.999Z,68.50
2017-09-22T07:14:03.538Z,68.40
2017-09-22T07:16:31.189Z,68.60
2017-09-22T07:18:58.765Z,68.90
2017-09-22T07:21:26.249Z,69.20
2017-09-22T07:23:53.702Z,68.90
2017-09-22T07:26:21.614Z,68.50
2017-09-22T07:28:49.870Z,68.70
2017-09-22T07:31:18.090Z,67.80
2017-09-22T07:33:45.593Z,67.70
2017-09-22T07:36:13.084Z,68.50
2017-09-22T07:38:42.418Z,67.30
2017-09-22T07:41:09.880Z,67.30
2017-09-22T07:43:37.461Z,67.80
2017-09-22T07:46:05.105Z,67.00
2017-09-22T07:48:32.969Z,66.40
2017-09-22T07:51:01.049Z,66.60
2017-09-22T07:53:29.288Z,66.60
2017-09-22T07:55:57.776Z,66.50
2017-09-22T07:58:25.729Z,67.10
2017-09-22T08:00:53.229Z,66.50
2017-09-22T08:03:21.002Z,66.10
2017-09-22T08:05:49.274Z,66.50
2017-09-22T08:08:17.496Z,66.20
2017-09-22T08:10:44.986Z,66.20
2017-09-22T08:13:12.460Z,66.40
2017-09-22T08:15:40.254Z,65.70
2017-09-22T08:18:08.564Z,64.80
2017-09-22T08:20:36.150Z,64.80
2017-09-22T08:23:03.610Z,64.90
2017-09-22T08:25:32.454Z,65.60
2017-09-22T08:27:59.919Z,65.60
2017-09-22T08:30:28.161Z,63.80
2017-09-22T08:32:55.616Z,64.50
2017-09-22T08:35:24.063Z,64.00
2017-09-22T08:37:53.521Z,63.50
2017-09-22T08:40:21.215Z,63.50
2017-09-22T08:42:49.510Z,63.40
2017-09-22T08:45:17.113Z,63.40
2017-09-22T08:47:45.026Z,62.40
2017-09-22T08:50:12.475Z,62.80
2017-09-22T08:52:40.158Z,62.10
2017-09-22T08:55:08.376Z,62.30
2017-09-22T08:57:36.931Z,62.00
2017-09-22T09:00:04.423Z,60.70
2017-09-22T09:02:33.085Z,60.10
2017-09-22T09:05:01.406Z,59.90
2017-09-22T09:07:28.858Z,59.90
2017-09-22T09:09:56.401Z,60.70
2017-09-22T09:12:24.240Z,60.10
2017-09-22T09:14:51.741Z,59.80
2017-09-22T09:17:19.989Z,60.30
2017-09-22T09:19:48.247Z,59.40
2017-09-22T09:22:16.477Z,60.50
2017-09-22T09:24:44.415Z,59.90
2017-09-22T09:27:12.401Z,60.00
2017-09-22T09:29:39.911Z,59.90
2017-09-22T09:32:07.390Z,58.60
2017-09-22T09:34:34.878Z,58.50
2017-09-22T09:37:02.695Z,58.40
2017-09-22T09:39:30.906Z,58.10
2017-09-22T09:41:58.614Z,58.00
2017-09-22T09:44:26.086Z,58.20
2017-09-22T09:46:54.593Z,58.20
2017-09-22T09:49:22.447Z,58.20
2017-09-22T09:51:50.695Z,58.00
2017-09-22T09:54:18.359Z,58.20
2017-09-22T09:56:47.151Z,57.30
2017-09-22T09:59:14.624Z,56.60
2017-09-22T10:01:42.616Z,57.30
2017-09-22T10:04:10.080Z,58.00
2017-09-22T10:06:37.556Z,57.70
2017-09-22T10:09:05.099Z,57.20
2017-09-22T10:11:32.643Z,57.10
2017-09-22T10:14:00.239Z,56.90
2017-09-22T10:16:29.822Z,56.10
2017-09-22T10:18:57.278Z,55.50
2017-09-22T10:21:25.619Z,56.20
2017-09-22T10:23:53.123Z,56.10
2017-09-22T10:26:21.764Z,55.70
2017-09-22T10:28:49.685Z,56.00
2017-09-22T10:31:17.135Z,55.00
2017-09-22T10:33:45.833Z,55.50
2017-09-22T10:36:13.433Z,55.40
2017-09-22T10:38:40.892Z,55.80
2017-09-22T10:41:09.115Z,54.70
2017-09-22T10:43:36.987Z,54.70
2017-09-22T10:46:04.593Z,54.10
2017-09-22T10:48:32.412Z,53.10
2017-09-22T10:51:00.681Z,52.20
2017-09-22T10:53:28.228Z,52.10
2017-09-22T10:55:56.422Z,53.60
2017-09-22T10:58:24.117Z,51.50
2017-09-22T11:00:51.593Z,51.20
2017-09-22T11:03:19.826Z,51.70
2017-09-22T11:05:47.295Z,51.70
2017-09-22T11:08:14.979Z,51.20
2017-09-22T11:10:42.486Z,51.70
2017-09-22T11:13:09.952Z,51.90
2017-09-22T11:15:38.203Z,50.80
2017-09-22T11:18:05.745Z,50.90
2017-09-22T11:20:33.198Z,51.10
2017-09-22T11:23:01.173Z,50.70
2017-09-22T11:25:30.231Z,50.80
2017-09-22T11:27:57.890Z,50.80
2017-09-22T11:30:26.113Z,50.60
2017-09-22T11:32:54.600Z,50.10
2017-09-22T11:35:22.201Z,49.80
2017-09-22T11:37:49.908Z,49.40
2017-09-22T11:40:18.127Z,49.90
2017-09-22T11:42:45.665Z,49.20
2017-09-22T11:45:13.677Z,49.50
2017-09-22T11:47:42.187Z,49.30
2017-09-22T11:50:09.730Z,49.20
2017-09-22T11:52:37.268Z,50.50
2017-09-22T11:55:05.329Z,50.10
2017-09-22T11:57:33.333Z,50.60
2017-09-22T12:00:02.752Z,52.10
2017-09-22T12:02:30.868Z,52.10
2017-09-22T12:04:59.308Z,53.30
2017-09-22T12:07:27.089Z,53.20
2017-09-22T12:09:54.700Z,53.70
2017-09-22T12:12:22.584Z,53.30
2017-09-22T12:14:50.902Z,54.40
2017-09-22T12:17:18.450Z,54.10
2017-09-22T12:19:47.647Z,53.50
2017-09-22T12:22:15.124Z,54.00
2017-09-22T12:24:44.236Z,54.30
2017-09-22T12:27:12.324Z,53.50
2017-09-22T12:29:39.813Z,53.70
2017-09-22T12:32:07.404Z,54.10
2017-09-22T12:34:35.689Z,54.30
2017-09-22T12:37:03.923Z,53.80
2017-09-22T12:39:31.424Z,53.70
2017-09-22T12:41:59.017Z,53.40
2017-09-22T12:44:26.541Z,53.10
2017-09-22T12:46:54.527Z,52.90
2017-09-22T12:49:22.766Z,53.50
2017-09-22T12:51:51.092Z,53.40
2017-09-22T12:54:18.640Z,53.60
2017-09-22T12:56:48.743Z,53.20
2017-09-22T12:59:16.311Z,53.90
2017-09-22T13:01:44.703Z,54.60
2017-09-22T13:04:12.934Z,52.70
2017-09-22T13:06:40.393Z,52.60
2017-09-22T13:09:07.893Z,52.10
2017-09-22T13:11:35.877Z,53.20
2017-09-22T13:14:03.393Z,51.90
2017-09-22T13:16:31.341Z,52.00
2017-09-22T13:18:58.884Z,51.00
2017-09-22T13:21:26.427Z,50.50
2017-09-22T13:23:53.894Z,51.00
2017-09-22T13:26:25.037Z,49.50
2017-09-22T13:28:52.482Z,49.60
2017-09-22T13:31:20.085Z,48.90
2017-09-22T13:33:47.561Z,49.60
2017-09-22T13:36:15.080Z,49.20
2017-09-22T13:38:44.659Z,49.80
2017-09-22T13:41:12.128Z,49.70
2017-09-22T13:43:40.336Z,50.40
2017-09-22T13:46:07.937Z,50.40
2017-09-22T13:48:36.569Z,49.60
2017-09-22T13:51:04.020Z,50.40
2017-09-22T13:53:31.599Z,50.80
2017-09-22T13:56:00.578Z,50.90
2017-09-22T13:58:29.061Z,51.80
2017-09-22T14:00:56.511Z,51.80
2017-09-22T14:03:24.433Z,52.30
2017-09-22T14:05:52.745Z,51.30
2017-09-22T14:08:20.773Z,51.30
2017-09-22T14:10:49.062Z,52.20
2017-09-22T14:13:16.860Z,52.10
2017-09-22T14:15:44.353Z,52.50
2017-09-22T14:18:11.808Z,52.90
2017-09-22T14:20:39.282Z,52.80
2017-09-22T14:23:06.757Z,52.50
2017-09-22T14:25:35.119Z,52.30
2017-09-22T14:28:02.933Z,51.80
2017-09-22T14:30:31.188Z,51.90
2017-09-22T14:32:58.644Z,51.30
2017-09-22T14:35:27.200Z,51.20
2017-09-22T14:37:54.679Z,51.20
2017-09-22T14:40:22.140Z,51.70
2017-09-22T14:42:49.735Z,52.20
2017-09-22T14:45:18.164Z,52.40
2017-09-22T14:47:46.147Z,52.40
2017-09-22T14:50:13.659Z,52.30
2017-09-22T14:52:41.218Z,52.40
2017-09-22T14:55:09.197Z,52.60
2017-09-22T14:57:38.574Z,52.40
2017-09-22T15:00:06.483Z,52.40
2017-09-22T15:02:34.828Z,52.60
2017-09-22T15:05:02.856Z,52.50
2017-09-22T15:07:31.085Z,50.90
2017-09-22T15:09:58.586Z,50.80
2017-09-22T15:12:26.061Z,49.80
2017-09-22T15:14:53.513Z,49.00
2017-09-22T15:17:21.325Z,48.20
2017-09-22T15:19:49.044Z,48.40
2017-09-22T15:22:16.553Z,46.40
2017-09-22T15:24:44.161Z,45.30
2017-09-22T15:27:12.184Z,45.40
2017-09-22T15:29:40.400Z,45.60
2017-09-22T15:32:09.768Z,46.50
2017-09-22T15:34:37.444Z,46.50
2017-09-22T15:37:04.944Z,47.90
2017-09-22T15:39:32.653Z,48.10
2017-09-22T15:42:00.928Z,48.70
2017-09-22T15:44:28.563Z,48.70
2017-09-22T15:46:57.881Z,49.90
2017-09-22T15:49:25.335Z,50.40
2017-09-22T15:51:53.379Z,49.60
2017-09-22T15:54:21.739Z,49.20
2017-09-22T15:56:50.467Z,49.60
2017-09-22T15:59:18.718Z,49.20
2017-09-22T16:01:47.133Z,49.10
2017-09-22T16:04:14.642Z,50.00
2017-09-22T16:06:42.120Z,50.10
2017-09-22T16:09:09.674Z,50.30
2017-09-22T16:11:37.115Z,50.20
2017-09-22T16:14:04.955Z,50.70
2017-09-22T16:16:33.418Z,50.60
2017-09-22T16:19:01.100Z,51.20
2017-09-22T16:21:28.631Z,51.80
2017-09-22T16:23:56.120Z,51.20
2017-09-22T16:26:24.052Z,51.60
2017-09-22T16:28:52.466Z,54.70
2017-09-22T16:31:20.024Z,54.60
2017-09-22T16:33:47.503Z,55.60
2017-09-22T16:36:15.924Z,56.20
2017-09-22T16:38:44.610Z,56.30
2017-09-22T16:41:12.583Z,56.50
2017-09-22T16:43:40.897Z,54.70
2017-09-22T16:46:08.791Z,54.80
2017-09-22T16:48:36.898Z,55.60
2017-09-22T16:51:05.061Z,55.60
2017-09-22T16:53:32.562Z,56.70
2017-09-22T16:56:08.188Z,57.50
2017-09-22T16:58:36.873Z,58.20
2017-09-22T17:01:05.756Z,58.30
2017-09-22T17:03:33.238Z,58.20
2017-09-22T17:06:00.711Z,58.60
2017-09-22T17:08:28.969Z,58.50
2017-09-22T17:10:56.912Z,58.40
2017-09-22T17:13:25.145Z,59.70
2017-09-22T17:15:52.789Z,59.10
2017-09-22T17:18:20.883Z,59.30
2017-09-22T17:20:48.384Z,59.30
2017-09-22T17:23:15.864Z,59.20
2017-09-22T17:25:44.455Z,60.00
2017-09-22T17:28:12.031Z,60.00
2017-09-22T17:30:39.503Z,60.00
2017-09-22T17:33:08.639Z,60.10
2017-09-22T17:35:36.199Z,60.10
2017-09-22T17:38:03.661Z,60.60
2017-09-22T17:40:31.421Z,60.80
2017-09-22T17:42:58.881Z,61.70
2017-09-22T17:45:27.192Z,61.30
2017-09-22T17:47:55.402Z,61.30
2017-09-22T17:50:24.578Z,61.00
2017-09-22T17:52:53.091Z,61.40
2017-09-22T17:55:21.021Z,61.40
2017-09-22T17:57:49.166Z,61.50
2017-09-22T18:00:19.507Z,61.30
2017-09-22T18:02:47.564Z,61.30
2017-09-22T18:05:15.026Z,61.30
2017-09-22T18:07:42.641Z,61.20
2017-09-22T18:10:10.090Z,61.50
2017-09-22T18:12:38.167Z,61.90
2017-09-22T18:15:05.632Z,62.00
2017-09-22T18:17:33.803Z,63.00
2017-09-22T18:20:02.215Z,63.30
2017-09-22T18:22:29.673Z,63.20
2017-09-22T18:24:57.502Z,62.90
2017-09-22T18:27:25.360Z,63.00
2017-09-22T18:29:54.091Z,63.50
2017-09-22T18:32:21.567Z,63.30
2017-09-22T18:34:50.583Z,64.00
2017-09-22T18:37:18.068Z,63.40
2017-09-22T18:39:46.294Z,63.70
2017-09-22T18:42:15.456Z,64.00
2017-09-22T18:44:43.418Z,64.00
2017-09-22T18:47:12.601Z,63.90
2017-09-22T18:49:41.404Z,64.50
2017-09-22T18:52:09.541Z,63.80
2017-09-22T18:54:37.816Z,63.70
2017-09-22T18:57:06.262Z,63.70
2017-09-22T18:59:34.983Z,63.90
2017-09-22T19:02:02.779Z,63.40
2017-09-22T19:04:31.004Z,64.10
2017-09-22T19:06:58.518Z,64.10
2017-09-22T19:09:26.028Z,64.30
2017-09-22T19:11:54.334Z,64.30
2017-09-22T19:14:21.836Z,64.30
2017-09-22T19:16:50.042Z,64.10
2017-09-22T19:19:17.679Z,64.10
2017-09-22T19:21:45.197Z,64.40
2017-09-22T19:24:12.697Z,64.60
2017-09-22T19:26:40.797Z,64.80
2017-09-22T19:29:08.309Z,64.40
2017-09-22T19:31:35.816Z,63.60
2017-09-22T19:34:05.244Z,63.70
2017-09-22T19:36:33.948Z,64.40
2017-09-22T19:39:01.485Z,64.40
2017-09-22T19:41:29.836Z,64.70
2017-09-22T19:43:57.293Z,64.70
2017-09-22T19:46:26.085Z,65.20
2017-09-22T19:48:53.627Z,65.30
2017-09-22T19:51:21.388Z,65.80
2017-09-22T19:53:48.895Z,66.30
2017-09-22T19:56:17.346Z,66.90
2017-09-22T19:58:45.958Z,67.30
2017-09-22T20:01:14.921Z,67.30
2017-09-22T20:03:42.416Z,67.10
2017-09-22T20:06:10.009Z,68.00
2017-09-22T20:08:37.658Z,68.60
2017-09-22T20:11:05.366Z,68.00
2017-09-22T20:13:33.882Z,68.30
2017-09-22T20:16:02.768Z,68.20
2017-09-22T20:18:30.300Z,68.50
2017-09-22T20:20:57.931Z,68.60
2017-09-22T20:23:25.785Z,68.70
2017-09-22T20:25:53.940Z,68.60
2017-09-22T20:28:22.273Z,68.60
2017-09-22T20:30:50.826Z,68.80
2017-09-22T20:33:19.152Z,68.40
2017-09-22T20:35:47.062Z,68.40
2017-09-22T20:38:14.681Z,67.70
2017-09-22T20:40:43.033Z,67.90
2017-09-22T20:43:11.092Z,67.90
2017-09-22T20:45:38.571Z,68.00
2017-09-22T20:48:06.392Z,67.60
2017-09-22T20:50:34.647Z,67.20
2017-09-22T20:53:02.123Z,67.20
2017-09-22T20:55:30.414Z,67.10
2017-09-22T20:57:58.583Z,67.00
2017-09-22T21:00:26.476Z,66.80
2017-09-22T21:02:55.056Z,66.70
2017-09-22T21:05:22.827Z,66.60
2017-09-22T21:07:50.374Z,66.60
2017-09-22T21:10:19.712Z,66.70
2017-09-22T21:12:47.987Z,67.60
2017-09-22T21:15:15.502Z,67.60
2017-09-22T21:17:43.027Z,66.80
2017-09-22T21:20:11.063Z,67.20
2017-09-22T21:22:38.633Z,67.20
2017-09-22T21:25:07.143Z,67.70
2017-09-22T21:27:35.581Z,67.30
2017-09-22T21:30:03.938Z,68.00
2017-09-22T21:32:33.285Z,68.50
2017-09-22T21:35:01.329Z,68.40
2017-09-22T21:37:28.863Z,68.40
2017-09-22T21:39:56.393Z,68.50
2017-09-22T21:42:24.477Z,68.50
2017-09-22T21:44:52.036Z,68.70
2017-09-22T21:47:19.977Z,68.70
2017-09-22T21:49:47.448Z,68.90
2017-09-22T21:52:14.918Z,68.90
2017-09-22T21:54:43.558Z,69.00
2017-09-22T21:57:12.261Z,69.00
2017-09-22T21:59:40.235Z,69.00
2017-09-22T22:02:08.248Z,69.00
2017-09-22T22:04:43.063Z,69.20
2017-09-22T22:07:17.159Z,69.40
2017-09-22T22:09:45.466Z,69.30
2017-09-22T22:12:13.019Z,69.20
2017-09-22T22:14:40.826Z,69.20
2017-09-22T22:17:08.316Z,69.10
2017-09-22T22:19:35.780Z,69.00
2017-09-22T22:22:04.023Z,69.20
2017-09-22T22:24:31.909Z,69.30
2017-09-22T22:27:00.416Z,69.30
2017-09-22T22:29:28.119Z,69.30
2017-09-22T22:31:56.390Z,69.20
2017-09-22T22:34:25.248Z,69.00
2017-09-22T22:37:04.584Z,69.00
2017-09-22T22:39:32.063Z,68.90
2017-09-22T22:41:59.607Z,69.10
2017-09-22T22:44:27.536Z,69.00
2017-09-22T22:46:56.029Z,69.00
2017-09-22T22:49:23.499Z,69.00
2017-09-22T22:51:52.616Z,69.80
2017-09-22T22:54:20.216Z,69.00
2017-09-22T22:56:48.977Z,68.90
2017-09-22T22:59:17.633Z,68.90
2017-09-22T23:01:45.614Z,68.80
2017-09-22T23:04:13.064Z,68.90
2017-09-22T23:06:40.548Z,69.10
2017-09-22T23:09:08.030Z,69.00
2017-09-22T23:11:35.561Z,69.40
2017-09-22T23:14:03.021Z,69.30
2017-09-22T23:16:30.668Z,69.40
2017-09-22T23:18:59.246Z,69.60
2017-09-22T23:21:27.661Z,69.90
2017-09-22T23:23:55.109Z,69.80
2017-09-22T23:26:23.324Z,70.10
2017-09-22T23:28:50.803Z,70.40
2017-09-22T23:31:18.309Z,70.80
2017-09-22T23:33:46.550Z,71.00
2017-09-22T23:36:15.316Z,71.60
2017-09-22T23:38:42.793Z,71.50
2017-09-22T23:41:11.032Z,71.70
2017-09-22T23:43:39.268Z,72.00
2017-09-22T23:46:06.730Z,72.00
2017-09-22T23:48:35.892Z,72.40
2017-09-22T23:51:03.347Z,72.40
2017-09-22T23:53:30.793Z,72.50
2017-09-22T23:55:59.532Z,72.70
2017-09-22T23:58:27.570Z,72.70
